createdAt,value
2022-09-22T00:01:47.468Z,758.47
2022-09-22T00:04:16.796Z,754.50
2022-09-22T00:06:48.355Z,760.97
2022-09-22T00:09:19.082Z,751.43
2022-09-22T00:11:49.344Z,764.67
2022-09-22T00:14:20.177Z,756.83
2022-09-22T00:16:50.430Z,751.63
2022-09-22T00:19:21.435Z,752.93
2022-09-22T00:21:49.763Z,754.90
2022-09-22T00:24:19.017Z,752.23
2022-09-22T00:26:46.999Z,749.53
2022-09-22T00:29:15.783Z,743.43
2022-09-22T00:31:44.530Z,758.47
2022-09-22T00:34:16.120Z,755.47
2022-09-22T00:36:45.908Z,745.73
2022-09-22T00:39:14.296Z,749.00
2022-09-22T00:41:44.868Z,740.47
2022-09-22T00:44:35.382Z,744.77
2022-09-22T00:47:10.397Z,739.97
2022-09-22T00:49:44.713Z,741.30
2022-09-22T00:52:16.772Z,736.07
2022-09-22T00:54:44.817Z,744.53
2022-09-22T00:57:15.451Z,744.00
2022-09-22T00:59:44.668Z,740.83
2022-09-22T01:02:12.737Z,740.77
2022-09-22T01:04:42.552Z,739.90
2022-09-22T01:07:11.083Z,737.80
2022-09-22T01:09:40.469Z,747.73
2022-09-22T01:12:08.910Z,744.37
2022-09-22T01:14:57.364Z,738.93
2022-09-22T01:17:31.179Z,740.20
2022-09-22T01:20:17.623Z,736.70
2022-09-22T01:23:15.225Z,745.10
2022-09-22T01:26:07.154Z,752.43
2022-09-22T01:28:52.456Z,739.67
2022-09-22T01:31:24.010Z,740.63
2022-09-22T01:33:55.021Z,745.97
2022-09-22T01:36:26.676Z,740.83
2022-09-22T01:39:02.340Z,747.33
2022-09-22T01:41:52.643Z,759.60
2022-09-22T01:44:25.830Z,761.90
2022-09-22T01:46:57.450Z,770.50
2022-09-22T01:49:26.241Z,767.37
2022-09-22T01:51:57.180Z,761.07
2022-09-22T01:54:29.864Z,758.47
2022-09-22T01:57:02.278Z,739.87
2022-09-22T01:59:31.687Z,740.17
2022-09-22T02:02:04.499Z,724.43
2022-09-22T02:04:36.648Z,726.90
2022-09-22T02:07:06.540Z,733.30
2022-09-22T02:09:36.043Z,730.20
2022-09-22T02:12:04.348Z,735.73
2022-09-22T02:14:32.575Z,728.27
2022-09-22T02:17:02.560Z,728.90
2022-09-22T02:19:33.503Z,730.40
2022-09-22T02:22:01.768Z,737.10
2022-09-22T02:24:32.246Z,741.10
2022-09-22T02:27:01.871Z,732.20
2022-09-22T02:29:31.762Z,733.50
2022-09-22T02:32:03.307Z,743.90
2022-09-22T02:34:31.853Z,748.20
2022-09-22T02:37:06.002Z,746.93
2022-09-22T02:39:37.820Z,751.40
2022-09-22T02:42:21.947Z,741.77
2022-09-22T02:44:54.780Z,755.43
2022-09-22T02:47:28.858Z,755.57
2022-09-22T02:49:56.927Z,760.77
2022-09-22T02:52:25.984Z,768.83
2022-09-22T02:54:54.892Z,769.63
2022-09-22T02:57:23.094Z,768.50
2022-09-22T02:59:51.004Z,766.93
2022-09-22T03:02:22.393Z,759.53
2022-09-22T03:04:51.971Z,766.67
2022-09-22T03:07:20.039Z,768.07
2022-09-22T03:09:47.931Z,762.07
2022-09-22T03:12:15.932Z,765.67
2022-09-22T03:14:44.047Z,765.50
2022-09-22T03:17:12.043Z,760.27
2022-09-22T03:19:39.972Z,763.60
2022-09-22T03:22:09.296Z,769.33
2022-09-22T03:24:37.192Z,768.13
2022-09-22T03:27:05.146Z,765.53
2022-09-22T03:29:33.053Z,772.47
2022-09-22T03:32:00.976Z,772.90
2022-09-22T03:34:29.044Z,770.13
2022-09-22T03:36:56.952Z,773.87
2022-09-22T03:39:26.232Z,772.13
2022-09-22T03:41:54.153Z,769.07
2022-09-22T03:44:22.066Z,773.23
2022-09-22T03:46:49.948Z,777.53
2022-09-22T03:49:17.876Z,770.27
2022-09-22T03:51:45.820Z,775.23
2022-09-22T03:54:13.817Z,774.40
2022-09-22T03:56:43.240Z,768.23
2022-09-22T03:59:11.546Z,771.33
2022-09-22T04:01:39.469Z,768.23
2022-09-22T04:04:07.662Z,769.50
2022-09-22T04:06:36.675Z,765.63
2022-09-22T04:09:05.258Z,767.20
2022-09-22T04:11:33.288Z,771.77
2022-09-22T04:14:03.896Z,772.23
2022-09-22T04:16:32.046Z,778.07
2022-09-22T04:19:01.093Z,772.07
2022-09-22T04:21:29.061Z,770.97
2022-09-22T04:23:57.306Z,772.07
2022-09-22T04:26:25.237Z,774.87
2022-09-22T04:28:53.140Z,776.73
2022-09-22T04:31:22.812Z,771.10
2022-09-22T04:33:50.833Z,765.53
2022-09-22T04:36:18.777Z,768.93
2022-09-22T04:38:46.763Z,769.47
2022-09-22T04:41:14.688Z,768.20
2022-09-22T04:43:43.475Z,773.50
2022-09-22T04:46:11.438Z,774.17
2022-09-22T04:52:08.124Z,769.50
2022-09-22T04:54:36.229Z,779.00
2022-09-22T04:57:04.307Z,773.23
2022-09-22T04:59:32.338Z,769.83
2022-09-22T05:02:00.350Z,775.73
2022-09-22T05:04:29.942Z,783.43
2022-09-22T05:06:57.911Z,774.97
2022-09-22T05:09:25.935Z,765.87
2022-09-22T05:11:55.085Z,766.20
2022-09-22T05:14:26.275Z,761.60
2022-09-22T05:16:54.576Z,768.67
2022-09-22T05:19:22.575Z,765.57
2022-09-22T05:21:52.070Z,779.50
2022-09-22T05:24:20.216Z,784.97
2022-09-22T05:26:48.203Z,773.57
2022-09-22T05:29:18.266Z,776.07
2022-09-22T05:31:46.389Z,776.73
2022-09-22T05:34:14.415Z,780.47
2022-09-22T05:36:42.347Z,767.53
2022-09-22T05:39:11.578Z,768.37
2022-09-22T05:41:40.157Z,774.47
2022-09-22T05:44:08.164Z,768.43
2022-09-22T05:46:36.188Z,767.00
2022-09-22T05:49:04.128Z,772.73
2022-09-22T05:51:32.076Z,780.03
2022-09-22T05:54:00.239Z,779.73
2022-09-22T05:56:29.756Z,785.73
2022-09-22T05:58:57.922Z,787.63
2022-09-22T06:01:25.969Z,791.40
2022-09-22T06:03:54.291Z,781.20
2022-09-22T06:06:22.215Z,780.37
2022-09-22T06:08:50.952Z,791.47
2022-09-22T06:11:18.884Z,784.23
2022-09-22T06:13:51.528Z,778.93
2022-09-22T06:16:20.045Z,782.30
2022-09-22T06:18:48.234Z,791.60
2022-09-22T06:21:17.897Z,791.53
2022-09-22T06:23:46.377Z,786.00
2022-09-22T06:26:14.476Z,800.03
2022-09-22T06:28:42.387Z,792.27
2022-09-22T06:31:12.105Z,795.83
2022-09-22T06:33:40.527Z,796.57
2022-09-22T06:36:10.224Z,795.13
2022-09-22T06:38:38.128Z,831.20
2022-09-22T06:41:07.331Z,788.23
2022-09-22T06:43:39.095Z,790.53
2022-09-22T06:46:10.162Z,787.27
2022-09-22T06:48:39.699Z,786.70
2022-09-22T06:51:07.818Z,782.47
2022-09-22T06:53:35.957Z,781.90
2022-09-22T06:56:06.268Z,791.37
2022-09-22T06:58:52.497Z,783.07
2022-09-22T07:01:22.371Z,787.80
2022-09-22T07:03:52.465Z,793.47
2022-09-22T07:06:20.701Z,785.80
2022-09-22T07:08:50.154Z,795.50
2022-09-22T07:11:19.389Z,786.17
2022-09-22T07:13:47.420Z,774.50
2022-09-22T07:16:17.651Z,784.40
2022-09-22T07:18:47.058Z,780.17
2022-09-22T07:21:18.083Z,781.60
2022-09-22T07:23:46.104Z,784.20
2022-09-22T07:26:16.307Z,789.37
2022-09-22T07:28:44.889Z,789.27
2022-09-22T07:31:14.548Z,786.37
2022-09-22T07:33:43.743Z,772.50
2022-09-22T07:36:13.996Z,775.17
2022-09-22T07:38:44.872Z,775.87
2022-09-22T07:41:14.225Z,764.10
2022-09-22T07:43:42.991Z,765.20
2022-09-22T07:46:12.437Z,764.37
2022-09-22T07:48:44.242Z,767.83
2022-09-22T07:51:18.246Z,765.63
2022-09-22T07:53:49.373Z,762.93
2022-09-22T07:56:21.358Z,763.80
2022-09-22T07:58:51.296Z,769.90
2022-09-22T08:01:19.956Z,764.27
2022-09-22T08:03:47.952Z,766.57
2022-09-22T08:06:18.399Z,761.40
2022-09-22T08:08:53.804Z,764.07
2022-09-22T08:11:23.483Z,756.83
2022-09-22T08:13:53.410Z,756.53
2022-09-22T08:16:22.984Z,756.73
2022-09-22T08:18:56.692Z,760.70
2022-09-22T08:21:24.768Z,760.40
2022-09-22T08:23:54.431Z,765.20
2022-09-22T08:26:22.961Z,767.73
2022-09-22T08:28:52.769Z,761.00
2022-09-22T08:31:21.335Z,768.27
2022-09-22T08:33:50.276Z,763.37
2022-09-22T08:36:18.374Z,765.93
2022-09-22T08:38:49.593Z,762.80
2022-09-22T08:41:24.297Z,756.13
2022-09-22T08:43:55.228Z,749.47
2022-09-22T08:46:30.454Z,755.87
2022-09-22T08:49:21.504Z,754.87
2022-09-22T08:51:55.641Z,748.10
2022-09-22T08:54:27.559Z,754.13
2022-09-22T08:57:11.412Z,758.83
2022-09-22T08:59:43.616Z,755.43
2022-09-22T09:02:40.096Z,748.90
2022-09-22T09:05:44.966Z,747.23
2022-09-22T09:08:23.872Z,737.47
2022-09-22T09:10:55.893Z,744.40
2022-09-22T09:13:37.104Z,740.90
2022-09-22T09:16:17.347Z,742.53
2022-09-22T09:18:53.296Z,745.23
2022-09-22T09:21:22.337Z,734.70
2022-09-22T09:26:40.938Z,725.90
2022-09-22T09:29:17.949Z,727.47
2022-09-22T09:31:48.718Z,723.73
2022-09-22T09:34:18.727Z,700.60
2022-09-22T09:36:50.120Z,709.43
2022-09-22T09:39:21.764Z,701.10
2022-09-22T09:41:50.068Z,691.83
2022-09-22T09:44:28.670Z,704.47
2022-09-22T09:47:11.250Z,706.20
2022-09-22T09:49:39.364Z,682.80
2022-09-22T09:52:11.831Z,684.13
2022-09-22T09:54:40.409Z,665.07
2022-09-22T09:57:10.317Z,672.13
2022-09-22T09:59:58.672Z,650.87
2022-09-22T10:02:28.583Z,645.93
2022-09-22T10:04:58.551Z,646.90
2022-09-22T10:07:28.733Z,644.30
2022-09-22T10:09:57.555Z,644.20
2022-09-22T10:12:28.218Z,643.17
2022-09-22T10:14:59.468Z,646.87
2022-09-22T10:17:30.374Z,644.37
2022-09-22T10:20:21.485Z,631.07
2022-09-22T10:22:52.727Z,643.50
2022-09-22T10:25:24.487Z,643.57
2022-09-22T10:28:04.414Z,625.47
2022-09-22T10:30:37.638Z,622.60
2022-09-22T10:33:17.266Z,615.30
2022-09-22T10:35:47.357Z,610.90
2022-09-22T10:38:17.574Z,602.73
2022-09-22T10:40:49.008Z,595.43
2022-09-22T10:43:40.973Z,585.33
2022-09-22T10:46:20.582Z,590.00
2022-09-22T10:48:53.224Z,598.87
2022-09-22T10:51:31.602Z,593.67
2022-09-22T10:54:14.068Z,608.20
2022-09-22T10:56:45.438Z,590.17
2022-09-22T10:59:37.308Z,595.23
2022-09-22T11:02:53.970Z,603.97
2022-09-22T11:05:42.644Z,586.70
2022-09-22T11:08:31.498Z,590.20
2022-09-22T11:11:21.287Z,574.27
2022-09-22T11:14:03.942Z,571.53
2022-09-22T11:16:48.081Z,576.70
2022-09-22T11:19:58.708Z,568.03
2022-09-22T11:22:51.506Z,572.80
2022-09-22T11:25:37.713Z,580.37
2022-09-22T11:28:17.304Z,573.83
2022-09-22T11:30:48.136Z,574.07
2022-09-22T11:33:37.917Z,564.57
2022-09-22T11:36:22.284Z,568.83
2022-09-22T11:39:25.959Z,561.57
2022-09-22T11:42:08.235Z,559.20
2022-09-22T11:44:40.068Z,554.67
2022-09-22T11:47:47.526Z,563.23
2022-09-22T11:50:44.524Z,556.77
2022-09-22T11:53:50.316Z,552.37
2022-09-22T11:56:31.428Z,544.67
2022-09-22T11:59:02.976Z,553.80
2022-09-22T12:01:35.813Z,537.40
2022-09-22T12:04:09.385Z,540.53
2022-09-22T12:06:41.887Z,539.20
2022-09-22T12:09:15.095Z,526.93
2022-09-22T12:11:48.316Z,535.73
2022-09-22T12:14:16.955Z,514.53
2022-09-22T12:16:48.796Z,510.70
2022-09-22T12:19:27.046Z,515.33
2022-09-22T12:22:05.899Z,517.77
2022-09-22T12:24:35.481Z,511.73
2022-09-22T12:27:11.064Z,502.33
2022-09-22T12:29:39.604Z,504.17
2022-09-22T12:32:07.802Z,498.10
2022-09-22T12:34:39.292Z,510.57
2022-09-22T12:37:12.452Z,507.17
2022-09-22T12:39:47.053Z,496.53
2022-09-22T12:42:20.937Z,497.83
2022-09-22T12:44:53.788Z,498.17
2022-09-22T12:47:23.859Z,499.17
2022-09-22T12:49:53.261Z,484.83
2022-09-22T12:52:50.649Z,503.03
2022-09-22T12:55:22.817Z,491.90
2022-09-22T12:57:51.943Z,501.57
2022-09-22T13:00:32.090Z,490.43
2022-09-22T13:03:01.965Z,493.57
2022-09-22T13:05:46.904Z,496.83
2022-09-22T13:08:25.925Z,495.97
2022-09-22T13:10:57.572Z,499.10
2022-09-22T13:13:40.587Z,489.50
2022-09-22T13:16:34.435Z,504.87
2022-09-22T13:19:03.108Z,500.47
2022-09-22T13:21:33.346Z,504.40
2022-09-22T13:24:02.628Z,501.03
2022-09-22T13:26:34.497Z,489.33
2022-09-22T13:29:11.969Z,489.10
2022-09-22T13:31:42.686Z,488.70
2022-09-22T13:34:29.015Z,492.87
2022-09-22T13:37:00.260Z,486.20
2022-09-22T13:39:31.222Z,495.07
2022-09-22T13:42:06.375Z,494.33
2022-09-22T13:44:35.675Z,485.20
2022-09-22T13:47:07.372Z,493.40
2022-09-22T13:49:39.662Z,476.50
2022-09-22T13:52:09.865Z,487.27
2022-09-22T13:54:38.563Z,477.33
2022-09-22T13:57:19.126Z,483.20
2022-09-22T13:59:57.683Z,493.93
2022-09-22T14:02:31.277Z,500.83
2022-09-22T14:05:01.849Z,495.50
2022-09-22T14:07:41.023Z,496.53
2022-09-22T14:10:19.741Z,503.30
2022-09-22T14:12:51.934Z,531.00
2022-09-22T14:15:49.895Z,500.77
2022-09-22T14:18:21.134Z,503.27
2022-09-22T14:20:53.842Z,511.77
2022-09-22T14:23:28.991Z,506.77
2022-09-22T14:25:57.555Z,501.77
2022-09-22T14:28:29.720Z,497.30
2022-09-22T14:30:57.899Z,499.60
2022-09-22T14:33:28.755Z,505.03
2022-09-22T14:36:00.730Z,489.10
2022-09-22T14:38:30.421Z,493.00
2022-09-22T14:41:00.084Z,491.67
2022-09-22T14:43:42.135Z,485.83
2022-09-22T14:46:23.134Z,497.53
2022-09-22T14:48:51.498Z,485.67
2022-09-22T14:51:23.435Z,489.27
2022-09-22T14:53:57.685Z,486.03
2022-09-22T14:56:33.837Z,494.17
2022-09-22T14:59:26.592Z,502.90
2022-09-22T15:02:13.625Z,505.27
2022-09-22T15:04:47.483Z,505.87
2022-09-22T15:07:24.717Z,499.33
2022-09-22T15:09:58.216Z,514.50
2022-09-22T15:12:38.092Z,499.13
2022-09-22T15:15:19.750Z,508.97
2022-09-22T15:18:06.850Z,508.27
2022-09-22T15:20:38.826Z,519.77
2022-09-22T15:23:13.457Z,505.57
2022-09-22T15:25:42.023Z,512.53
2022-09-22T15:28:14.945Z,519.83
2022-09-22T15:30:47.447Z,508.50
2022-09-22T15:33:16.152Z,521.20
2022-09-22T15:35:45.893Z,518.83
2022-09-22T15:38:18.446Z,522.40
2022-09-22T15:40:47.407Z,515.67
2022-09-22T15:43:19.717Z,518.60
2022-09-22T15:45:50.667Z,519.23
2022-09-22T15:48:25.267Z,524.63
2022-09-22T15:50:53.607Z,524.43
2022-09-22T15:53:22.006Z,519.37
2022-09-22T15:55:52.153Z,526.00
2022-09-22T15:58:23.168Z,531.40
2022-09-22T16:00:53.432Z,536.10
2022-09-22T16:03:23.970Z,528.80
2022-09-22T16:05:55.214Z,535.03
2022-09-22T16:08:28.740Z,538.47
2022-09-22T16:10:57.437Z,523.33
2022-09-22T16:13:26.897Z,534.60
2022-09-22T16:15:56.557Z,524.57
2022-09-22T16:18:24.586Z,529.83
2022-09-22T16:20:52.541Z,534.73
2022-09-22T16:23:20.621Z,541.87
2022-09-22T16:25:53.730Z,541.20
2022-09-22T16:28:21.716Z,538.93
2022-09-22T16:30:49.761Z,533.90
2022-09-22T16:33:19.039Z,539.87
2022-09-22T16:35:47.183Z,534.50
2022-09-22T16:38:15.632Z,521.43
2022-09-22T16:40:45.779Z,541.43
2022-09-22T16:43:13.847Z,539.07
2022-09-22T16:45:59.520Z,539.10
2022-09-22T16:48:28.901Z,536.33
2022-09-22T16:50:56.876Z,544.30
2022-09-22T16:53:25.772Z,553.83
2022-09-22T16:55:54.301Z,541.80
2022-09-22T16:58:24.266Z,549.30
2022-09-22T17:00:52.295Z,548.93
2022-09-22T17:03:20.324Z,540.97
2022-09-22T17:05:49.714Z,547.30
2022-09-22T17:08:25.514Z,547.50
2022-09-22T17:10:54.657Z,564.90
2022-09-22T17:13:27.882Z,556.57
2022-09-22T17:16:07.943Z,557.30
2022-09-22T17:18:41.880Z,551.43
2022-09-22T17:21:11.479Z,556.87
2022-09-22T17:23:39.889Z,577.40
2022-09-22T17:26:11.550Z,577.53
2022-09-22T17:28:39.781Z,577.27
2022-09-22T17:31:08.372Z,586.40
2022-09-22T17:33:37.677Z,581.37
2022-09-22T17:36:06.973Z,586.60
2022-09-22T17:38:38.173Z,590.57
2022-09-22T17:41:12.941Z,603.03
2022-09-22T17:43:43.378Z,605.30
2022-09-22T17:46:15.527Z,614.93
2022-09-22T17:49:01.434Z,608.13
2022-09-22T17:51:48.620Z,610.20
2022-09-22T17:54:43.094Z,610.57
2022-09-22T17:57:13.583Z,611.60
2022-09-22T17:59:41.874Z,617.70
2022-09-22T18:02:11.113Z,611.03
2022-09-22T18:04:40.366Z,602.47
2022-09-22T18:07:12.328Z,597.30
2022-09-22T18:09:41.982Z,592.70
2022-09-22T18:12:12.504Z,589.33
2022-09-22T18:14:44.202Z,577.53
2022-09-22T18:17:12.910Z,593.97
2022-09-22T18:19:46.845Z,589.60
2022-09-22T18:22:21.060Z,580.47
2022-09-22T18:24:56.603Z,588.73
2022-09-22T18:27:27.079Z,568.97
2022-09-22T18:29:58.514Z,578.23
2022-09-22T18:32:27.572Z,571.53
2022-09-22T18:34:58.621Z,567.20
2022-09-22T18:37:33.629Z,565.43
2022-09-22T18:40:10.516Z,558.20
2022-09-22T18:42:42.432Z,560.90
2022-09-22T18:45:12.630Z,565.67
2022-09-22T18:47:43.572Z,576.03
2022-09-22T18:50:21.855Z,578.97
2022-09-22T18:52:56.690Z,569.77
2022-09-22T18:55:28.463Z,561.30
2022-09-22T18:57:56.519Z,559.53
2022-09-22T19:00:25.045Z,567.70
2022-09-22T19:02:54.286Z,559.80
2022-09-22T19:05:22.295Z,571.73
2022-09-22T19:07:50.437Z,569.57
2022-09-22T19:10:22.214Z,574.90
2022-09-22T19:12:55.338Z,580.70
2022-09-22T19:15:25.315Z,585.33
2022-09-22T19:17:53.586Z,581.60
2022-09-22T19:20:24.348Z,586.47
2022-09-22T19:22:58.482Z,582.83
2022-09-22T19:25:27.539Z,578.23
2022-09-22T19:27:58.264Z,583.97
2022-09-22T19:30:29.699Z,593.57
2022-09-22T19:33:00.408Z,590.80
2022-09-22T19:35:34.047Z,589.73
2022-09-22T19:38:12.050Z,593.13
2022-09-22T19:40:41.410Z,590.60
2022-09-22T19:43:15.806Z,587.17
2022-09-22T19:45:49.611Z,594.57
2022-09-22T19:48:18.137Z,597.57
2022-09-22T19:50:52.065Z,596.73
2022-09-22T19:53:21.019Z,601.13
2022-09-22T19:55:50.330Z,609.63
2022-09-22T19:58:19.865Z,610.47
2022-09-22T20:00:50.008Z,616.93
2022-09-22T20:03:32.556Z,627.40
2022-09-22T20:06:00.666Z,618.47
2022-09-22T20:08:31.470Z,617.47
2022-09-22T20:11:16.629Z,637.87
2022-09-22T20:14:08.119Z,633.23
2022-09-22T20:16:46.785Z,647.97
2022-09-22T20:19:15.642Z,634.43
2022-09-22T20:21:45.532Z,659.73
2022-09-22T20:24:16.039Z,660.03
2022-09-22T20:26:46.396Z,642.87
2022-09-22T20:29:22.500Z,637.77
2022-09-22T20:31:53.697Z,637.07
2022-09-22T20:34:22.075Z,615.80
2022-09-22T20:36:50.170Z,610.90
2022-09-22T20:39:18.726Z,612.43
2022-09-22T20:41:53.018Z,621.93
2022-09-22T20:44:25.954Z,630.53
2022-09-22T20:46:55.378Z,652.87
2022-09-22T20:49:23.802Z,630.93
2022-09-22T20:51:51.792Z,651.67
2022-09-22T20:54:22.261Z,647.13
2022-09-22T20:56:50.290Z,622.00
2022-09-22T20:59:18.386Z,637.87
2022-09-22T21:01:47.804Z,645.27
2022-09-22T21:04:18.885Z,662.93
2022-09-22T21:06:49.269Z,658.53
2022-09-22T21:09:34.559Z,665.03
2022-09-22T21:12:02.844Z,665.27
2022-09-22T21:14:33.724Z,658.90
2022-09-22T21:17:04.784Z,677.80
2022-09-22T21:19:34.465Z,669.07
2022-09-22T21:22:02.554Z,668.60
2022-09-22T21:24:31.214Z,674.10
2022-09-22T21:26:59.341Z,674.10
2022-09-22T21:29:27.779Z,680.20
2022-09-22T21:31:58.018Z,694.07
2022-09-22T21:34:30.772Z,650.27
2022-09-22T21:36:58.801Z,665.63
2022-09-22T21:39:29.918Z,673.40
2022-09-22T21:41:58.049Z,686.40
2022-09-22T21:44:26.165Z,690.00
2022-09-22T21:46:54.702Z,721.30
2022-09-22T21:49:22.914Z,726.80
2022-09-22T21:51:52.706Z,732.27
2022-09-22T21:54:20.745Z,729.17
2022-09-22T21:56:50.769Z,737.53
2022-09-22T21:59:20.882Z,746.00
2022-09-22T22:01:48.882Z,753.53
2022-09-22T22:04:17.759Z,755.30
2022-09-22T22:06:47.104Z,767.50
2022-09-22T22:09:23.229Z,770.63
2022-09-22T22:11:56.533Z,770.17
2022-09-22T22:14:26.443Z,762.87
2022-09-22T22:16:55.993Z,753.23
2022-09-22T22:19:26.845Z,749.83
2022-09-22T22:21:57.521Z,745.87
2022-09-22T22:24:35.184Z,752.67
2022-09-22T22:27:05.836Z,746.87
2022-09-22T22:29:36.236Z,748.00
2022-09-22T22:32:06.131Z,750.57
2022-09-22T22:34:34.201Z,750.37
2022-09-22T22:37:03.897Z,746.23
2022-09-22T22:39:33.409Z,740.97
2022-09-22T22:42:01.351Z,744.97
2022-09-22T22:44:31.444Z,745.30
2022-09-22T22:46:59.413Z,741.80
2022-09-22T22:49:28.179Z,749.70
2022-09-22T22:51:56.189Z,744.90
2022-09-22T22:54:24.139Z,756.27
2022-09-22T22:56:56.156Z,753.57
2022-09-22T22:59:24.172Z,754.03
2022-09-22T23:01:52.404Z,758.87
2022-09-22T23:04:22.429Z,755.00
2022-09-22T23:06:52.196Z,748.97
2022-09-22T23:09:20.099Z,761.13
2022-09-22T23:11:48.130Z,754.20
2022-09-22T23:14:20.007Z,761.10
2022-09-22T23:16:49.502Z,759.03
2022-09-22T23:19:19.046Z,748.20
2022-09-22T23:21:49.244Z,763.87
2022-09-22T23:24:19.132Z,759.57
2022-09-22T23:26:47.611Z,762.40
2022-09-22T23:29:16.923Z,761.80
2022-09-22T23:31:45.630Z,763.43
2022-09-22T23:34:13.703Z,760.87
2022-09-22T23:36:41.791Z,762.43
2022-09-22T23:39:12.430Z,760.57
2022-09-22T23:41:40.529Z,763.10
2022-09-22T23:44:08.627Z,768.17
2022-09-22T23:46:39.880Z,772.43
2022-09-22T23:49:07.945Z,763.13
2022-09-22T23:51:36.896Z,765.27
2022-09-22T23:54:05.109Z,763.33
2022-09-22T23:56:33.184Z,769.53
2022-09-22T23:59:01.142Z,771.10
